Time;durP1;ratioP1;P1;durP2;ratioP2;P2;SDS_P1;SDS_P2;PMS_P1;PMS_P2;Temp;Humidity;BMP_temperature;BMP_pressure;BME280_temperature;BME280_humidity;BME280_pressure;Samples;Min_cycle;Max_cycle;Signal;HPM_P1;HPM_P2
2022/03/07 00:01:05;;;;;;;8.27;3.03;;;;;;;;;;5104082;27;20102;-90
2022/03/07 00:03:32;;;;;;;5.82;2.65;;;;;;;;;;5102081;27;20172;-90
2022/03/07 00:05:58;;;;;;;9.43;2.90;;;;;;;;;;5102304;27;20481;-87
2022/03/07 00:08:25;;;;;;;8.15;2.92;;;;;;;;;;5097852;27;20492;-88
2022/03/07 00:10:51;;;;;;;8.05;2.85;;;;;;;;;;5084824;28;20054;-88
2022/03/07 00:13:17;;;;;;;5.50;2.95;;;;;;;;;;5087367;27;20051;-86
2022/03/07 00:15:43;;;;;;;8.52;2.85;;;;;;;;;;5088493;28;20126;-85
2022/03/07 00:18:09;;;;;;;9.43;3.30;;;;;;;;;;5099526;28;20109;-83
2022/03/07 00:20:35;;;;;;;7.53;3.00;;;;;;;;;;5097352;28;20055;-86
2022/03/07 00:23:01;;;;;;;10.80;3.15;;;;;;;;;;5079797;28;20052;-86
2022/03/07 00:25:27;;;;;;;9.60;2.80;;;;;;;;;;5087024;27;20050;-87
2022/03/07 00:27:54;;;;;;;7.43;3.13;;;;;;;;;;5103566;27;20055;-89
2022/03/07 00:30:20;;;;;;;8.20;3.13;;;;;;;;;;5097944;28;20509;-88
2022/03/07 00:32:47;;;;;;;8.00;3.35;;;;;;;;;;5084759;28;20047;-82
2022/03/07 00:35:13;;;;;;;5.72;3.13;;;;;;;;;;5104791;27;20048;-86
2022/03/07 06:11:58;;;;;;;9.48;5.07;;;;;;;;;;5462835;23;20114;-79
2022/03/07 06:14:24;;;;;;;9.25;4.88;;;;;;;;;;4852057;29;20068;-77
2022/03/07 06:16:50;;;;;;;12.77;5.03;;;;;;;;;;4850086;29;20184;-77
2022/03/07 06:19:16;;;;;;;11.98;5.15;;;;;;;;;;4848784;29;20085;-77
2022/03/07 06:21:42;;;;;;;10.18;5.45;;;;;;;;;;4832820;29;20088;-79
2022/03/07 06:24:09;;;;;;;11.10;5.57;;;;;;;;;;4835057;29;20088;-77
2022/03/07 06:26:35;;;;;;;10.60;4.95;;;;;;;;;;4853504;29;20147;-78
2022/03/07 06:29:02;;;;;;;10.40;4.80;;;;;;;;;;4837486;29;20057;-79
2022/03/07 06:31:28;;;;;;;8.20;4.93;;;;;;;;;;4854537;29;20400;-78
2022/03/07 06:33:54;;;;;;;11.68;4.90;;;;;;;;;;4855295;29;20096;-78
2022/03/07 06:36:20;;;;;;;10.02;4.88;;;;;;;;;;4824065;29;20548;-77
2022/03/07 06:38:46;;;;;;;15.65;6.80;;;;;;;;;;4855242;29;20143;-78
2022/03/07 06:41:12;;;;;;;8.75;5.47;;;;;;;;;;4854793;29;20113;-80
2022/03/07 06:43:39;;;;;;;12.95;5.55;;;;;;;;;;4853669;29;20060;-77
2022/03/07 06:46:05;;;;;;;10.18;5.45;;;;;;;;;;4838934;29;20053;-76
2022/03/07 06:48:31;;;;;;;11.07;5.07;;;;;;;;;;4850239;29;20348;-76
2022/03/07 06:50:57;;;;;;;15.38;5.00;;;;;;;;;;4836151;29;20144;-76
2022/03/07 06:53:23;;;;;;;5.65;4.15;;;;;;;;;;4857733;29;20049;-76
2022/03/07 06:55:49;;;;;;;9.60;4.43;;;;;;;;;;4843147;29;20059;-76
2022/03/07 06:58:15;;;;;;;13.23;5.25;;;;;;;;;;4841165;29;20053;-77
2022/03/07 07:00:41;;;;;;;11.40;5.10;;;;;;;;;;4859247;29;20041;-77
2022/03/07 07:03:07;;;;;;;11.32;5.70;;;;;;;;;;4855646;29;20432;-77
2022/03/07 07:05:34;;;;;;;10.80;5.15;;;;;;;;;;4858208;29;20440;-77
2022/03/07 07:08:00;;;;;;;11.18;5.78;;;;;;;;;;4857651;29;20452;-78
2022/03/07 07:10:26;;;;;;;12.02;5.03;;;;;;;;;;4857681;29;20060;-78
2022/03/07 07:12:52;;;;;;;;;;;;;;;;;;4842899;29;20560;-77
2022/03/07 07:15:18;;;;;;;;;;;;;;;;;;4857789;29;20370;-77
2022/03/07 07:17:44;;;;;;;;;;;;;;;;;;4852542;29;19991;-76
2022/03/07 07:20:13;;;;;;;;;;;;;;;;;;4841081;29;19931;-75
2022/03/07 07:22:39;;;;;;;;;;;;;;;;;;4858547;29;20418;-76
2022/03/07 07:25:05;;;;;;;;;;;;;;;;;;4860033;29;19979;-76
2022/03/07 07:27:31;;;;;;;;;;;;;;;;;;4858882;29;19924;-77
2022/03/07 07:29:57;;;;;;;;;;;;;;;;;;4856708;29;19939;-78
2022/03/07 07:32:23;;;;;;;;;;;;;;;;;;4839906;29;19930;-77
2022/03/07 07:34:49;;;;;;;;;;;;;;;;;;4841622;29;19983;-78
2022/03/07 07:37:15;;;;;;;;;;;;;;;;;;4856307;29;19923;-77
2022/03/07 07:39:41;;;;;;;;;;;;;;;;;;4854770;29;19959;-77
2022/03/07 07:42:07;;;;;;;7.43;4.38;;;;;;;;;;4854784;29;19959;-78
2022/03/07 07:44:33;;;;;;;14.50;4.63;;;;;;;;;;4857039;29;20155;-78
2022/03/07 07:46:59;;;;;;;9.00;3.53;;;;;;;;;;4857704;29;20040;-78
2022/03/07 07:49:25;;;;;;;8.75;4.22;;;;;;;;;;4841407;29;20123;-78
2022/03/07 07:51:52;;;;;;;5.82;3.50;;;;;;;;;;4842601;29;20052;-77
2022/03/07 07:54:18;;;;;;;5.85;3.35;;;;;;;;;;4857583;29;20060;-77
2022/03/07 07:56:44;;;;;;;8.80;3.80;;;;;;;;;;4856823;29;20179;-78
2022/03/07 07:59:13;;;;;;;7.15;4.07;;;;;;;;;;4841081;29;20044;-78
2022/03/07 08:01:39;;;;;;;8.35;4.60;;;;;;;;;;4830429;29;20500;-78
2022/03/07 08:04:05;;;;;;;10.70;5.72;;;;;;;;;;4834302;29;20060;-77
2022/03/07 08:06:31;;;;;;;11.52;5.20;;;;;;;;;;4864044;29;20049;-83
2022/03/07 08:08:57;;;;;;;;;;;;;;;;;;4848570;29;20061;-75
2022/03/07 08:11:24;;;;;;;10.23;4.60;;;;;;;;;;4848508;29;20353;-78
2022/03/07 08:13:50;;;;;;;10.27;5.03;;;;;;;;;;4849560;29;20498;-77
2022/03/07 08:16:18;;;;;;;9.10;4.60;;;;;;;;;;4846865;29;20448;-79
2022/03/07 08:18:44;;;;;;;9.82;4.57;;;;;;;;;;4832534;29;20954;-78
2022/03/07 08:21:10;;;;;;;8.63;4.30;;;;;;;;;;4843736;29;20448;-79
2022/03/07 08:23:36;;;;;;;7.32;4.10;;;;;;;;;;4848413;29;20449;-80
2022/03/07 08:26:03;;;;;;;6.87;4.33;;;;;;;;;;4834156;29;20502;-80
2022/03/07 08:28:29;;;;;;;6.80;3.85;;;;;;;;;;4848304;29;20493;-81
2022/03/07 08:30:55;;;;;;;7.80;3.72;;;;;;;;;;4831522;29;20457;-80
2022/03/07 08:33:21;;;;;;;8.65;3.42;;;;;;;;;;4830470;29;20463;-80
2022/03/07 08:35:49;;;;;;;6.25;3.35;;;;;;;;;;4848499;29;20455;-79
2022/03/07 08:38:15;;;;;;;;;;;;;;;;;;4869542;29;20400;-78
2022/03/07 08:40:41;;;;;;;;;;;;;;;;;;4833693;29;19924;-83
2022/03/07 08:43:07;;;;;;;;;;;;;;;;;;4833027;29;20256;-78
2022/03/07 08:45:34;;;;;;;5.75;3.05;;;;;;;;;;4849331;29;20039;-77
2022/03/07 08:48:00;;;;;;;6.93;2.92;;;;;;;;;;4850490;29;20055;-78
2022/03/07 08:50:26;;;;;;;6.03;2.50;;;;;;;;;;4848729;29;20045;-77
2022/03/07 08:52:53;;;;;;;7.43;2.47;;;;;;;;;;4832780;29;20779;-78
2022/03/07 08:55:19;;;;;;;6.22;2.63;;;;;;;;;;4847223;29;20454;-77
2022/03/07 08:57:45;;;;;;;7.63;2.60;;;;;;;;;;4865184;29;20762;-77
2022/03/07 09:00:12;;;;;;;4.15;2.22;;;;;;;;;;4833991;29;20125;-80
2022/03/07 09:02:38;;;;;;;7.43;2.65;;;;;;;;;;4852475;29;20608;-78
2022/03/07 09:05:05;;;;;;;5.10;2.30;;;;;;;;;;4852202;29;20386;-79
2022/03/07 09:07:32;;;;;;;4.07;1.80;;;;;;;;;;4849690;29;20052;-79
2022/03/07 09:09:58;;;;;;;8.00;2.33;;;;;;;;;;4847392;29;20045;-79
2022/03/07 09:12:27;;;;;;;5.72;1.90;;;;;;;;;;4831578;29;20153;-80
2022/03/07 09:14:57;;;;;;;5.00;1.75;;;;;;;;;;4848307;29;20053;-80
2022/03/07 09:17:24;;;;;;;5.38;1.88;;;;;;;;;;4835159;29;20524;-79
2022/03/07 09:19:50;;;;;;;5.60;1.80;;;;;;;;;;4848949;29;20051;-79
2022/03/07 09:22:16;;;;;;;5.28;1.90;;;;;;;;;;4847940;29;20576;-81
2022/03/07 09:24:42;;;;;;;5.67;2.20;;;;;;;;;;4831387;29;20457;-81
2022/03/07 09:27:08;;;;;;;5.82;2.03;;;;;;;;;;4851920;29;20049;-80
2022/03/07 09:29:34;;;;;;;;;;;;;;;;;;4821050;29;20448;-79
2022/03/07 09:32:00;;;;;;;;;;;;;;;;;;4847407;29;19928;-77
2022/03/07 09:34:26;;;;;;;;;;;;;;;;;;4849279;29;20316;-79
2022/03/07 09:36:52;;;;;;;;;;;;;;;;;;4846273;29;19932;-77
2022/03/07 09:39:18;;;;;;;8.98;2.47;;;;;;;;;;4848598;29;19928;-79
2022/03/07 09:41:44;;;;;;;5.55;2.17;;;;;;;;;;4832182;29;20080;-83
2022/03/07 09:44:10;;;;;;;6.15;2.42;;;;;;;;;;4848139;29;20059;-81
2022/03/07 09:46:37;;;;;;;6.05;2.00;;;;;;;;;;4844313;29;20461;-80
2022/03/07 09:49:03;;;;;;;4.05;2.30;;;;;;;;;;4847178;29;20067;-82
2022/03/07 09:51:29;;;;;;;10.25;2.38;;;;;;;;;;4845524;29;20049;-84
2022/03/07 09:53:55;;;;;;;4.97;2.22;;;;;;;;;;4833430;29;20049;-84
2022/03/07 09:56:22;;;;;;;7.55;2.17;;;;;;;;;;4851045;29;20116;-77
2022/03/07 09:58:48;;;;;;;4.47;1.70;;;;;;;;;;4851612;29;20459;-81
2022/03/07 10:01:19;;;;;;;6.50;1.95;;;;;;;;;;4849851;29;20053;-84
2022/03/07 10:03:45;;;;;;;4.47;1.88;;;;;;;;;;4849529;29;20060;-84
2022/03/07 10:06:15;;;;;;;5.05;1.60;;;;;;;;;;4834386;29;20068;-83
2022/03/07 10:08:51;;;;;;;6.63;2.08;;;;;;;;;;4849551;29;20057;-81
2022/03/07 10:11:17;;;;;;;10.40;1.85;;;;;;;;;;4849993;29;20068;-86
2022/03/07 10:13:50;;;;;;;7.07;1.90;;;;;;;;;;4832541;29;20233;-82
2022/03/07 10:16:16;;;;;;;8.57;2.00;;;;;;;;;;4835541;29;20073;-82
2022/03/07 10:18:48;;;;;;;4.47;1.83;;;;;;;;;;4834541;29;20083;-83
2022/03/07 10:21:20;;;;;;;8.23;2.22;;;;;;;;;;4834240;29;20138;-81
2022/03/07 10:23:57;;;;;;;4.90;1.80;;;;;;;;;;4837866;29;20056;-80
2022/03/07 10:26:24;;;;;;;4.47;1.80;;;;;;;;;;4839367;29;20065;-81
2022/03/07 10:28:57;;;;;;;10.18;2.00;;;;;;;;;;4873052;29;20083;-80
2022/03/07 10:31:24;;;;;;;6.18;2.13;;;;;;;;;;4841209;29;20049;-82
2022/03/07 10:34:04;;;;;;;7.55;1.98;;;;;;;;;;4853117;29;20048;-81
2022/03/07 10:36:37;;;;;;;5.65;1.75;;;;;;;;;;4849837;29;20080;-80
2022/03/07 10:39:08;;;;;;;5.90;1.63;;;;;;;;;;4853942;29;20115;-86
2022/03/07 10:41:39;;;;;;;5.07;1.83;;;;;;;;;;4853727;29;20060;-79
2022/03/07 10:44:22;;;;;;;4.00;1.75;;;;;;;;;;4855462;29;20177;-84
2022/03/07 10:46:49;;;;;;;4.68;1.27;;;;;;;;;;4854746;29;20045;-82
2022/03/07 10:49:16;;;;;;;3.95;1.40;;;;;;;;;;4849239;29;20136;-87
2022/03/07 10:51:55;;;;;;;4.25;1.23;;;;;;;;;;4856959;29;20295;-86
2022/03/07 10:54:23;;;;;;;6.32;1.63;;;;;;;;;;4856527;29;20135;-85
2022/03/07 10:56:49;;;;;;;8.57;2.00;;;;;;;;;;4840328;29;20056;-81
2022/03/07 10:59:25;;;;;;;9.88;1.67;;;;;;;;;;4855919;29;20083;-83
2022/03/07 11:01:58;;;;;;;5.38;1.63;;;;;;;;;;4856765;29;20053;-86
2022/03/07 11:04:24;;;;;;;8.18;2.00;;;;;;;;;;4857088;29;20116;-82
2022/03/07 11:06:50;;;;;;;5.55;2.20;;;;;;;;;;4857055;29;20037;-87
2022/03/07 11:09:16;;;;;;;8.75;2.30;;;;;;;;;;4856839;29;20052;-86
2022/03/07 11:11:42;;;;;;;6.68;2.13;;;;;;;;;;4835705;29;20508;-85
2022/03/07 11:14:09;;;;;;;4.40;1.67;;;;;;;;;;4853795;29;20324;-83
2022/03/07 11:16:35;;;;;;;4.65;1.77;;;;;;;;;;4851819;29;20479;-79
2022/03/07 11:19:02;;;;;;;4.95;1.40;;;;;;;;;;4851581;29;20045;-81
2022/03/07 11:21:30;;;;;;;3.50;1.35;;;;;;;;;;4850590;29;20103;-80
2022/03/07 11:23:56;;;;;;;4.85;1.40;;;;;;;;;;4857112;29;20497;-80
2022/03/07 11:26:23;;;;;;;6.60;1.77;;;;;;;;;;4840898;29;20568;-83
2022/03/07 11:28:52;;;;;;;2.45;1.23;;;;;;;;;;4840468;29;20609;-81
2022/03/07 11:31:22;;;;;;;2.25;1.00;;;;;;;;;;4840270;29;20127;-79
2022/03/07 11:33:52;;;;;;;3.80;1.27;;;;;;;;;;4853328;29;20053;-79
2022/03/07 11:36:19;;;;;;;1.80;1.23;;;;;;;;;;4840714;29;20084;-78
2022/03/07 11:38:56;;;;;;;5.20;1.65;;;;;;;;;;4840378;29;20052;-79
2022/03/07 11:41:24;;;;;;;6.68;1.42;;;;;;;;;;4839380;29;20635;-78
2022/03/07 11:44:01;;;;;;;5.47;1.52;;;;;;;;;;4853263;29;20351;-79
2022/03/07 11:46:31;;;;;;;2.60;1.23;;;;;;;;;;4854914;29;20080;-79
2022/03/07 11:48:57;;;;;;;2.03;1.13;;;;;;;;;;4855774;29;20156;-78
2022/03/07 11:51:28;;;;;;;2.50;1.30;;;;;;;;;;4843384;29;20153;-77
2022/03/07 11:53:55;;;;;;;4.85;1.60;;;;;;;;;;4854908;29;20504;-78
2022/03/07 11:56:27;;;;;;;2.90;1.33;;;;;;;;;;4875077;29;20084;-78
2022/03/07 11:58:55;;;;;;;5.43;1.48;;;;;;;;;;4856440;29;20076;-76
2022/03/07 12:01:22;;;;;;;6.25;2.42;;;;;;;;;;4856201;29;20041;-78
2022/03/07 12:03:48;;;;;;;5.20;1.67;;;;;;;;;;4840771;29;20056;-80
2022/03/07 12:06:15;;;;;;;5.00;1.85;;;;;;;;;;4857108;29;20065;-80
2022/03/07 12:08:49;;;;;;;7.72;2.03;;;;;;;;;;4841091;29;20518;-79
2022/03/07 12:11:25;;;;;;;3.70;1.33;;;;;;;;;;4840977;29;20089;-78
2022/03/07 12:13:52;;;;;;;4.63;1.75;;;;;;;;;;4855993;29;20053;-79
2022/03/07 12:16:28;;;;;;;6.20;1.40;;;;;;;;;;4854096;29;20302;-83
2022/03/07 12:18:55;;;;;;;2.33;1.33;;;;;;;;;;4856210;29;20408;-79
2022/03/07 12:21:28;;;;;;;3.08;1.20;;;;;;;;;;4854027;29;20069;-79
2022/03/07 12:23:56;;;;;;;3.85;1.38;;;;;;;;;;4854705;29;20041;-79
2022/03/07 12:26:22;;;;;;;4.72;1.42;;;;;;;;;;4855267;29;20111;-79
2022/03/07 12:28:48;;;;;;;3.63;1.15;;;;;;;;;;4840955;29;20139;-79
2022/03/07 12:31:14;;;;;;;2.35;1.30;;;;;;;;;;4840173;29;20063;-79
2022/03/07 12:33:45;;;;;;;2.28;0.93;;;;;;;;;;4854270;29;20485;-79
2022/03/07 12:36:12;;;;;;;4.20;1.10;;;;;;;;;;4853771;29;20124;-80
2022/03/07 12:39:04;;;;;;;4.93;1.25;;;;;;;;;;4871077;29;20052;-79
2022/03/07 12:41:31;;;;;;;3.58;1.00;;;;;;;;;;4854401;29;20061;-79
2022/03/07 12:43:58;;;;;;;3.35;1.02;;;;;;;;;;4853600;29;20104;-80
2022/03/07 12:46:24;;;;;;;2.22;1.00;;;;;;;;;;4836440;29;20049;-79
2022/03/07 12:48:51;;;;;;;2.17;0.82;;;;;;;;;;4854319;29;20045;-80
2022/03/07 12:51:18;;;;;;;3.40;0.98;;;;;;;;;;4839489;29;20044;-79
2022/03/07 12:53:46;;;;;;;4.88;1.25;;;;;;;;;;4838847;29;20052;-79
2022/03/07 12:56:13;;;;;;;2.25;1.00;;;;;;;;;;4853497;29;20156;-79
2022/03/07 12:58:46;;;;;;;5.70;1.30;;;;;;;;;;4823123;29;20057;-78
2022/03/07 13:01:12;;;;;;;2.85;1.38;;;;;;;;;;4838530;29;20045;-79
2022/03/07 13:03:38;;;;;;;4.70;1.40;;;;;;;;;;4855464;29;20057;-79
2022/03/07 13:06:04;;;;;;;2.60;1.10;;;;;;;;;;4855853;29;20045;-80
2022/03/07 13:08:30;;;;;;;2.08;0.95;;;;;;;;;;4839270;29;20080;-79
2022/03/07 13:10:57;;;;;;;2.45;1.00;;;;;;;;;;4838034;29;20728;-80
2022/03/07 13:13:23;;;;;;;3.20;0.90;;;;;;;;;;4836107;29;20061;-80
2022/03/07 13:15:49;;;;;;;3.53;1.10;;;;;;;;;;4853412;29;20057;-80
2022/03/07 13:18:15;;;;;;;2.58;0.95;;;;;;;;;;4855194;29;20048;-82
2022/03/07 13:20:42;;;;;;;3.65;1.15;;;;;;;;;;4854699;29;20056;-80
2022/03/07 13:23:09;;;;;;;5.45;1.65;;;;;;;;;;4839683;29;20057;-79
2022/03/07 13:25:36;;;;;;;2.25;0.90;;;;;;;;;;4838359;29;20049;-81
2022/03/07 13:28:03;;;;;;;1.90;0.90;;;;;;;;;;4841510;29;20477;-81
2022/03/07 13:30:29;;;;;;;5.80;1.00;;;;;;;;;;4856842;29;20053;-81
2022/03/07 13:33:02;;;;;;;1.95;0.85;;;;;;;;;;4855169;29;20113;-80
2022/03/07 13:35:28;;;;;;;2.67;1.27;;;;;;;;;;4855367;29;20119;-81
2022/03/07 13:37:55;;;;;;;2.53;1.20;;;;;;;;;;4838080;29;20393;-81
2022/03/07 13:40:25;;;;;;;3.90;1.30;;;;;;;;;;4857432;29;20334;-80
2022/03/07 13:42:53;;;;;;;2.85;1.10;;;;;;;;;;4854160;29;20056;-80
2022/03/07 13:45:21;;;;;;;1.75;1.00;;;;;;;;;;4840706;29;20492;-80
2022/03/07 13:47:48;;;;;;;2.97;0.82;;;;;;;;;;4839396;29;20397;-79
2022/03/07 13:50:23;;;;;;;3.95;1.00;;;;;;;;;;4843976;29;20131;-80
2022/03/07 13:52:51;;;;;;;1.35;0.88;;;;;;;;;;4840836;29;20053;-80
2022/03/07 13:55:19;;;;;;;3.33;1.10;;;;;;;;;;4857041;29;20044;-81
2022/03/07 13:57:48;;;;;;;4.03;1.25;;;;;;;;;;4856309;29;20140;-80
2022/03/07 14:00:21;;;;;;;2.28;1.50;;;;;;;;;;4839674;29;20048;-77
2022/03/07 14:02:49;;;;;;;2.38;1.58;;;;;;;;;;4838642;29;20314;-80
2022/03/07 14:05:16;;;;;;;3.63;1.50;;;;;;;;;;4841877;29;20049;-81
2022/03/07 14:07:49;;;;;;;3.35;1.30;;;;;;;;;;4855896;29;20041;-80
2022/03/07 14:10:17;;;;;;;1.92;1.10;;;;;;;;;;4854917;29;20136;-80
2022/03/07 14:12:50;;;;;;;2.78;1.20;;;;;;;;;;4838857;29;20501;-78
2022/03/07 14:15:16;;;;;;;5.45;1.90;;;;;;;;;;4854968;29;20442;-79
2022/03/07 14:17:43;;;;;;;5.32;1.40;;;;;;;;;;4838198;29;20061;-79
2022/03/07 14:20:11;;;;;;;3.25;1.50;;;;;;;;;;4839243;29;20056;-80
2022/03/07 14:22:38;;;;;;;3.70;1.42;;;;;;;;;;4857549;29;20052;-80
2022/03/07 14:25:05;;;;;;;4.10;1.27;;;;;;;;;;4839974;29;20081;-82
2022/03/07 14:27:32;;;;;;;4.20;1.20;;;;;;;;;;4855357;29;20048;-79
2022/03/07 14:30:01;;;;;;;2.85;1.10;;;;;;;;;;4871889;29;20053;-79
2022/03/07 14:32:27;;;;;;;3.08;1.25;;;;;;;;;;4856389;29;20060;-79
2022/03/07 14:34:54;;;;;;;3.40;1.38;;;;;;;;;;4822457;29;20042;-79
2022/03/07 14:37:30;;;;;;;1.98;1.25;;;;;;;;;;4839837;29;20152;-75
2022/03/07 14:39:57;;;;;;;1.65;1.10;;;;;;;;;;4839348;29;20053;-78
2022/03/07 14:42:24;;;;;;;2.85;1.25;;;;;;;;;;4836799;29;20164;-78
2022/03/07 14:44:51;;;;;;;3.80;1.40;;;;;;;;;;4853797;29;20438;-78
2022/03/07 14:47:17;;;;;;;3.17;1.58;;;;;;;;;;4838333;29;20136;-77
2022/03/07 14:49:44;;;;;;;2.95;1.48;;;;;;;;;;4870385;29;20533;-77
2022/03/07 14:52:12;;;;;;;3.10;1.30;;;;;;;;;;4855442;29;20037;-78
2022/03/07 14:54:39;;;;;;;1.88;1.25;;;;;;;;;;4854041;29;20069;-77
2022/03/07 14:57:05;;;;;;;3.50;1.27;;;;;;;;;;4838171;29;20053;-78
2022/03/07 14:59:32;;;;;;;1.85;1.10;;;;;;;;;;4842252;29;20087;-76
2022/03/07 15:01:58;;;;;;;3.30;1.65;;;;;;;;;;4851908;29;20049;-79
2022/03/07 15:04:24;;;;;;;2.22;1.17;;;;;;;;;;4853027;29;20493;-79
2022/03/07 15:06:50;;;;;;;3.63;1.30;;;;;;;;;;4870624;29;20049;-79
2022/03/07 15:09:16;;;;;;;3.67;1.77;;;;;;;;;;4855783;29;20135;-79
2022/03/07 15:11:44;;;;;;;4.90;1.30;;;;;;;;;;4857852;29;20448;-81
2022/03/07 15:14:20;;;;;;;3.05;1.35;;;;;;;;;;4826131;29;20060;-81
2022/03/07 15:16:46;;;;;;;2.83;1.40;;;;;;;;;;4856699;29;20056;-81
2022/03/07 15:19:13;;;;;;;2.60;1.42;;;;;;;;;;4840811;29;20124;-81
2022/03/07 15:21:41;;;;;;;2.72;1.20;;;;;;;;;;4858955;29;20076;-85
2022/03/07 15:24:11;;;;;;;4.15;1.20;;;;;;;;;;4841826;29;20481;-83
2022/03/07 15:26:38;;;;;;;2.03;1.25;;;;;;;;;;4875168;29;20132;-85
2022/03/07 15:29:09;;;;;;;3.38;1.48;;;;;;;;;;4839912;29;20159;-83
2022/03/07 15:31:35;;;;;;;3.42;1.45;;;;;;;;;;4843954;29;20052;-83
2022/03/07 15:34:02;;;;;;;5.28;1.33;;;;;;;;;;4842540;29;20140;-83
2022/03/07 15:36:28;;;;;;;1.98;1.33;;;;;;;;;;4843961;29;20049;-83
2022/03/07 15:38:56;;;;;;;3.58;1.83;;;;;;;;;;4858363;29;20472;-81
2022/03/07 15:41:23;;;;;;;3.10;1.63;;;;;;;;;;4856948;29;20078;-75
2022/03/07 15:43:49;;;;;;;2.88;1.50;;;;;;;;;;4854107;29;20072;-81
2022/03/07 15:46:16;;;;;;;2.63;1.70;;;;;;;;;;4839947;29;20083;-83
2022/03/07 15:48:42;;;;;;;1.73;1.23;;;;;;;;;;4855357;29;20053;-81
2022/03/07 15:51:15;;;;;;;3.35;2.20;;;;;;;;;;4857936;29;20455;-81
2022/03/07 15:53:42;;;;;;;4.07;1.60;;;;;;;;;;4853351;29;20843;-83
2022/03/07 15:56:09;;;;;;;3.10;1.50;;;;;;;;;;4855832;29;20310;-81
2022/03/07 15:58:36;;;;;;;4.53;1.80;;;;;;;;;;4855414;29;20048;-83
2022/03/07 16:01:03;;;;;;;1.77;1.58;;;;;;;;;;4825465;29;20091;-81
2022/03/07 16:03:29;;;;;;;4.10;1.50;;;;;;;;;;4841787;29;20105;-82
2022/03/07 16:05:55;;;;;;;1.73;1.45;;;;;;;;;;4839683;29;20055;-83
2022/03/07 16:08:21;;;;;;;3.58;1.60;;;;;;;;;;4856608;29;20155;-82
2022/03/07 16:10:47;;;;;;;4.10;1.65;;;;;;;;;;4857400;29;20060;-81
2022/03/07 16:13:14;;;;;;;6.03;1.85;;;;;;;;;;4829061;29;20548;-82
2022/03/07 16:15:42;;;;;;;3.05;1.70;;;;;;;;;;4834825;29;20505;-80
2022/03/07 16:18:09;;;;;;;4.30;1.75;;;;;;;;;;4851975;29;20049;-81
2022/03/07 16:20:39;;;;;;;2.88;1.80;;;;;;;;;;4823102;29;20112;-83
2022/03/07 16:23:06;;;;;;;5.93;1.73;;;;;;;;;;4841793;29;20584;-77
2022/03/07 16:25:32;;;;;;;3.00;1.50;;;;;;;;;;4839855;29;20049;-85
2022/03/07 16:27:58;;;;;;;3.03;1.65;;;;;;;;;;4820470;29;20156;-87
2022/03/07 16:30:25;;;;;;;2.78;1.50;;;;;;;;;;4837568;29;20057;-86
2022/03/07 16:32:52;;;;;;;3.80;1.73;;;;;;;;;;4823665;29;20068;-83
2022/03/07 16:35:18;;;;;;;3.65;2.00;;;;;;;;;;4809127;29;20083;-86
2022/03/07 16:37:45;;;;;;;3.40;1.60;;;;;;;;;;4822776;29;20061;-83
2022/03/07 16:40:12;;;;;;;3.08;1.80;;;;;;;;;;4837915;29;20058;-86
2022/03/07 16:42:39;;;;;;;3.50;2.33;;;;;;;;;;4822646;29;20049;-84
2022/03/07 16:45:06;;;;;;;3.25;1.60;;;;;;;;;;4826941;29;20154;-82
2022/03/07 16:47:36;;;;;;;3.70;1.63;;;;;;;;;;4839223;29;20050;-84
2022/03/07 16:50:04;;;;;;;2.50;1.70;;;;;;;;;;4838604;29;20076;-86
2022/03/07 16:52:30;;;;;;;2.70;1.60;;;;;;;;;;4822492;29;20053;-86
2022/03/07 16:54:56;;;;;;;2.85;1.83;;;;;;;;;;4837188;29;20045;-82
2022/03/07 16:57:22;;;;;;;2.30;1.85;;;;;;;;;;4818208;29;20053;-82
2022/03/07 16:59:48;;;;;;;2.80;1.52;;;;;;;;;;4817548;29;20046;-76
2022/03/07 17:02:14;;;;;;;3.83;1.77;;;;;;;;;;4846784;29;20068;-76
2022/03/07 17:04:40;;;;;;;4.18;2.30;;;;;;;;;;4827354;29;20053;-75
2022/03/07 17:07:07;;;;;;;3.03;2.20;;;;;;;;;;4829088;29;20045;-77
2022/03/07 17:09:33;;;;;;;3.80;1.75;;;;;;;;;;4830785;29;20049;-75
2022/03/07 17:11:59;;;;;;;2.83;1.63;;;;;;;;;;4850418;29;20184;-78
2022/03/07 17:14:25;;;;;;;3.65;1.98;;;;;;;;;;4848483;29;20101;-76
2022/03/07 17:16:51;;;;;;;4.43;1.67;;;;;;;;;;4852137;29;20083;-74
2022/03/07 17:19:17;;;;;;;3.40;1.70;;;;;;;;;;4852597;29;20053;-76
2022/03/07 17:21:43;;;;;;;2.72;1.88;;;;;;;;;;4869151;29;20567;-76
2022/03/07 17:24:10;;;;;;;3.40;1.90;;;;;;;;;;4852579;29;20108;-76
2022/03/07 17:26:37;;;;;;;4.07;2.50;;;;;;;;;;4831195;29;20349;-75
2022/03/07 17:29:04;;;;;;;2.90;1.85;;;;;;;;;;4866323;29;20425;-75
2022/03/07 17:31:30;;;;;;;4.03;2.03;;;;;;;;;;4848942;29;20057;-74
2022/03/07 17:33:56;;;;;;;4.07;2.80;;;;;;;;;;4853466;29;20065;-77
2022/03/07 17:36:22;;;;;;;4.25;2.28;;;;;;;;;;4872986;29;20053;-75
2022/03/07 17:38:49;;;;;;;4.03;2.42;;;;;;;;;;4871572;29;20079;-76
2022/03/07 17:41:16;;;;;;;4.18;2.20;;;;;;;;;;4870720;29;20092;-74
2022/03/07 17:43:42;;;;;;;4.93;2.40;;;;;;;;;;4852086;29;20507;-75
2022/03/07 17:46:08;;;;;;;7.45;2.75;;;;;;;;;;4838604;29;20045;-77
2022/03/07 17:48:34;;;;;;;4.63;2.30;;;;;;;;;;4851860;29;20117;-75
2022/03/07 17:51:00;;;;;;;4.90;2.47;;;;;;;;;;4850674;29;20676;-75
2022/03/07 17:53:26;;;;;;;6.72;2.70;;;;;;;;;;4854549;29;20049;-77
2022/03/07 17:55:59;;;;;;;5.38;2.90;;;;;;;;;;4841519;29;20080;-78
2022/03/07 17:58:25;;;;;;;4.35;3.15;;;;;;;;;;4832575;29;20519;-77
2022/03/07 18:00:51;;;;;;;7.03;3.38;;;;;;;;;;4851871;29;20171;-78
2022/03/07 18:03:18;;;;;;;7.55;3.50;;;;;;;;;;4839732;29;20133;-76
2022/03/07 18:05:44;;;;;;;4.97;3.05;;;;;;;;;;4858560;29;20045;-76
2022/03/07 18:08:10;;;;;;;6.40;3.05;;;;;;;;;;4840026;29;20037;-76
2022/03/07 18:10:36;;;;;;;5.32;3.10;;;;;;;;;;4839714;29;20057;-77
2022/03/07 18:13:02;;;;;;;5.45;3.00;;;;;;;;;;4855196;29;20065;-76
2022/03/07 18:15:28;;;;;;;6.47;2.85;;;;;;;;;;4842881;29;20084;-78
2022/03/07 18:17:55;;;;;;;9.02;3.55;;;;;;;;;;4840216;29;20192;-79
2022/03/07 18:20:22;;;;;;;5.88;3.00;;;;;;;;;;4841628;29;20048;-78
2022/03/07 18:22:48;;;;;;;5.03;3.13;;;;;;;;;;4841368;29;20052;-79
2022/03/07 18:25:14;;;;;;;4.90;3.47;;;;;;;;;;4840340;29;20393;-79
2022/03/07 18:27:40;;;;;;;7.75;3.42;;;;;;;;;;4855973;29;20057;-79
2022/03/07 18:30:07;;;;;;;5.65;3.33;;;;;;;;;;4853912;29;20136;-74
2022/03/07 18:32:33;;;;;;;8.23;3.58;;;;;;;;;;4837561;29;20489;-73
2022/03/07 18:35:00;;;;;;;6.28;3.67;;;;;;;;;;4870743;29;20160;-72
2022/03/07 18:37:26;;;;;;;7.20;3.92;;;;;;;;;;4850854;29;20049;-75
2022/03/07 18:39:52;;;;;;;8.82;3.70;;;;;;;;;;4853204;29;20053;-76
2022/03/07 18:42:19;;;;;;;11.32;4.22;;;;;;;;;;4853298;29;20191;-77
2022/03/07 18:44:45;;;;;;;7.93;4.05;;;;;;;;;;4856078;29;20052;-76
2022/03/07 18:47:11;;;;;;;9.73;4.57;;;;;;;;;;4839656;29;20421;-78
2022/03/07 18:49:38;;;;;;;6.25;3.63;;;;;;;;;;4857961;29;20144;-78
2022/03/07 18:52:04;;;;;;;12.90;4.47;;;;;;;;;;4857094;29;20504;-78
2022/03/07 18:54:30;;;;;;;9.13;4.10;;;;;;;;;;4849771;29;20068;-79
2022/03/07 18:56:57;;;;;;;10.80;4.43;;;;;;;;;;4835628;29;20067;-78
2022/03/07 18:59:23;;;;;;;6.03;3.83;;;;;;;;;;4836496;29;20049;-79
2022/03/07 19:01:49;;;;;;;6.57;3.70;;;;;;;;;;4850762;29;20109;-79
2022/03/07 19:04:15;;;;;;;8.98;4.28;;;;;;;;;;4835145;29;20124;-76
2022/03/07 19:06:42;;;;;;;8.02;3.72;;;;;;;;;;4863541;29;20053;-75
2022/03/07 19:09:08;;;;;;;7.88;4.25;;;;;;;;;;4836636;29;20053;-75
2022/03/07 19:11:35;;;;;;;7.72;4.30;;;;;;;;;;4852677;29;20515;-75
2022/03/07 19:14:03;;;;;;;9.27;3.92;;;;;;;;;;4849364;29;20047;-76
2022/03/07 19:16:29;;;;;;;9.43;4.80;;;;;;;;;;4850700;29;20057;-76
2022/03/07 19:18:55;;;;;;;10.02;4.88;;;;;;;;;;4848991;29;20045;-76
2022/03/07 19:21:21;;;;;;;10.07;4.95;;;;;;;;;;4850497;29;20088;-76
2022/03/07 19:23:47;;;;;;;11.65;4.25;;;;;;;;;;4850272;29;20049;-77
2022/03/07 19:26:13;;;;;;;6.07;4.05;;;;;;;;;;4837487;29;20061;-78
2022/03/07 19:28:39;;;;;;;7.53;4.60;;;;;;;;;;4851120;29;20056;-77
2022/03/07 19:31:05;;;;;;;10.88;5.03;;;;;;;;;;4850383;29;20087;-80
2022/03/07 19:33:31;;;;;;;8.30;4.95;;;;;;;;;;4852746;29;20365;-75
2022/03/07 19:35:58;;;;;;;9.40;4.70;;;;;;;;;;4872490;29;20057;-75
2022/03/07 19:38:24;;;;;;;7.70;4.75;;;;;;;;;;4869881;29;20059;-76
2022/03/07 19:40:50;;;;;;;7.80;4.53;;;;;;;;;;4868703;29;20128;-77
2022/03/07 19:43:16;;;;;;;12.88;4.60;;;;;;;;;;4851956;29;21943;-78
2022/03/07 19:45:44;;;;;;;11.23;5.13;;;;;;;;;;4837434;29;20069;-76
2022/03/07 19:48:11;;;;;;;12.75;5.57;;;;;;;;;;4852969;29;20128;-77
2022/03/07 19:50:37;;;;;;;9.38;5.30;;;;;;;;;;4852692;29;20544;-77
2022/03/07 19:53:03;;;;;;;12.68;5.65;;;;;;;;;;4856532;29;20063;-76
2022/03/07 19:55:30;;;;;;;9.40;5.25;;;;;;;;;;4852315;29;20132;-76
2022/03/07 19:57:56;;;;;;;10.25;5.85;;;;;;;;;;4856040;29;20167;-76
2022/03/07 20:00:22;;;;;;;12.80;6.07;;;;;;;;;;4870493;29;20052;-75
2022/03/07 20:02:49;;;;;;;9.65;6.53;;;;;;;;;;4840447;29;20397;-74
2022/03/07 20:05:15;;;;;;;10.23;5.72;;;;;;;;;;4869282;29;20397;-75
2022/03/07 20:07:41;;;;;;;11.43;6.50;;;;;;;;;;4836787;29;20418;-75
2022/03/07 20:10:09;;;;;;;12.23;6.78;;;;;;;;;;4827191;29;20133;-76
2022/03/07 20:12:36;;;;;;;16.15;7.65;;;;;;;;;;4840465;29;20057;-75
2022/03/07 20:15:02;;;;;;;17.13;8.63;;;;;;;;;;4856828;29;20057;-74
2022/03/07 20:17:29;;;;;;;15.23;7.22;;;;;;;;;;4852469;29;20052;-76
2022/03/07 20:19:55;;;;;;;11.65;6.30;;;;;;;;;;4853568;29;20060;-75
2022/03/07 20:22:21;;;;;;;12.32;6.45;;;;;;;;;;4858107;29;20136;-75